createdAt,value
2023-02-23T00:02:22.088Z,48.47
2023-02-23T00:04:52.118Z,45.97
2023-02-23T00:07:21.040Z,46.70
2023-02-23T00:09:52.966Z,49.45
2023-02-23T00:12:24.020Z,50.10
2023-02-23T00:14:52.841Z,48.05
2023-02-23T00:17:24.403Z,52.15
2023-02-23T00:19:55.434Z,48.72
2023-02-23T00:22:26.205Z,46.10
2023-02-23T00:24:57.510Z,48.53
2023-02-23T00:27:26.223Z,48.08
2023-02-23T00:29:54.977Z,50.42
2023-02-23T00:32:24.216Z,48.17
2023-02-23T00:34:54.611Z,46.75
2023-02-23T00:37:23.851Z,39.55
2023-02-23T00:39:52.996Z,41.13
2023-02-23T00:42:21.687Z,39.85
2023-02-23T00:44:50.541Z,38.05
2023-02-23T00:47:19.347Z,33.95
2023-02-23T00:49:51.289Z,35.08
2023-02-23T00:52:22.541Z,29.77
2023-02-23T00:54:51.464Z,37.95
2023-02-23T00:57:20.183Z,34.50
2023-02-23T00:59:51.181Z,34.13
2023-02-23T01:02:20.301Z,35.55
2023-02-23T01:04:51.564Z,29.27
2023-02-23T01:07:22.360Z,34.75
2023-02-23T01:09:53.297Z,31.08
2023-02-23T01:12:24.711Z,29.15
2023-02-23T01:14:53.551Z,27.75
2023-02-23T01:17:22.457Z,31.77
2023-02-23T01:19:51.235Z,34.30
2023-02-23T01:22:19.858Z,34.50
2023-02-23T01:24:48.615Z,31.52
2023-02-23T01:27:20.059Z,33.40
2023-02-23T01:29:48.861Z,31.50
2023-02-23T01:32:17.688Z,35.50
2023-02-23T01:34:46.698Z,33.08
2023-02-23T01:37:15.307Z,31.38
2023-02-23T01:39:44.085Z,37.58
2023-02-23T01:42:14.709Z,36.42
2023-02-23T01:45:23.850Z,35.53
2023-02-23T01:47:55.690Z,35.22
2023-02-23T01:50:26.583Z,33.78
2023-02-23T01:52:56.808Z,34.85
2023-02-23T01:55:29.190Z,38.50
2023-02-23T01:58:06.791Z,35.70
2023-02-23T02:00:37.727Z,39.08
2023-02-23T02:03:14.099Z,37.05
2023-02-23T02:05:43.040Z,38.08
2023-02-23T02:08:12.801Z,39.60
2023-02-23T02:10:45.104Z,35.65
2023-02-23T02:13:22.874Z,40.58
2023-02-23T02:16:35.926Z,40.30
2023-02-23T02:19:34.155Z,44.83
2023-02-23T02:22:38.559Z,43.45
2023-02-23T02:25:49.525Z,46.92
2023-02-23T02:28:43.338Z,47.13
2023-02-23T02:31:55.000Z,54.92
2023-02-23T02:34:49.704Z,53.00
2023-02-23T02:37:41.046Z,56.33
2023-02-23T02:40:18.724Z,52.25
2023-02-23T02:43:09.315Z,47.35
2023-02-23T02:45:44.666Z,53.80
2023-02-23T02:48:22.096Z,52.70
2023-02-23T02:50:56.172Z,53.70
2023-02-23T02:53:33.127Z,49.25
2023-02-23T02:56:05.794Z,54.45
2023-02-23T02:58:39.433Z,55.90
2023-02-23T03:04:18.176Z,50.25
2023-02-23T03:07:06.304Z,52.22
2023-02-23T03:10:06.270Z,59.22
2023-02-23T03:13:00.187Z,48.17
2023-02-23T03:15:55.769Z,52.97
2023-02-23T03:19:04.730Z,54.75
2023-02-23T03:22:01.417Z,49.80
2023-02-23T03:27:45.829Z,58.13
2023-02-23T03:33:32.092Z,55.42
2023-02-23T03:36:23.729Z,57.50
2023-02-23T03:39:15.794Z,59.42
2023-02-23T03:42:04.768Z,59.47
2023-02-23T03:44:57.620Z,61.05
2023-02-23T03:47:48.006Z,62.83
2023-02-23T03:50:40.549Z,63.10
2023-02-23T03:53:29.986Z,54.80
2023-02-23T03:56:17.473Z,52.80
2023-02-23T03:59:08.563Z,55.28
2023-02-23T04:01:57.914Z,57.05
2023-02-23T04:04:45.790Z,62.15
2023-02-23T04:07:36.800Z,63.30
2023-02-23T04:10:24.935Z,53.25
2023-02-23T04:13:16.456Z,57.85
2023-02-23T04:15:53.963Z,54.90
2023-02-23T04:18:27.451Z,53.20
2023-02-23T04:20:57.348Z,59.05
2023-02-23T04:23:26.577Z,56.92
2023-02-23T04:25:56.077Z,60.47
2023-02-23T04:28:26.532Z,55.40
2023-02-23T04:30:55.406Z,60.08
2023-02-23T04:33:27.179Z,63.70
2023-02-23T04:35:56.356Z,67.38
2023-02-23T04:38:25.329Z,54.00
2023-02-23T04:40:53.957Z,62.97
2023-02-23T04:43:22.698Z,66.75
2023-02-23T04:45:51.657Z,63.30
2023-02-23T04:48:20.505Z,52.88
2023-02-23T04:50:53.705Z,53.55
2023-02-23T04:53:22.535Z,52.67
2023-02-23T04:55:51.715Z,54.15
2023-02-23T04:58:20.525Z,51.22
2023-02-23T05:00:49.760Z,49.30
2023-02-23T05:03:18.567Z,47.30
2023-02-23T05:05:47.224Z,50.10
2023-02-23T05:08:17.377Z,50.53
2023-02-23T05:10:47.727Z,53.03
2023-02-23T05:13:16.491Z,50.03
2023-02-23T05:15:45.203Z,51.70
2023-02-23T05:18:13.877Z,56.85
2023-02-23T05:20:45.729Z,54.50
2023-02-23T05:23:14.591Z,59.35
2023-02-23T05:25:44.716Z,55.63
2023-02-23T05:28:13.374Z,67.97
2023-02-23T05:30:42.260Z,65.40
2023-02-23T05:33:10.944Z,60.72
2023-02-23T05:35:42.059Z,64.13
2023-02-23T05:38:10.800Z,62.17
2023-02-23T05:40:39.844Z,60.35
2023-02-23T05:43:09.930Z,55.65
2023-02-23T05:45:41.674Z,61.85
2023-02-23T05:48:10.567Z,58.97
2023-02-23T05:50:39.798Z,61.80
2023-02-23T05:53:08.511Z,60.67
2023-02-23T05:55:37.673Z,59.67
2023-02-23T05:58:07.210Z,58.75
2023-02-23T06:00:37.322Z,63.70
2023-02-23T06:03:06.231Z,62.13
2023-02-23T06:05:35.089Z,59.80
2023-02-23T06:08:03.847Z,65.95
2023-02-23T06:10:32.580Z,55.03
2023-02-23T06:13:01.408Z,64.07
2023-02-23T06:15:30.137Z,68.15
2023-02-23T06:18:00.279Z,56.38
2023-02-23T06:20:29.032Z,66.07
2023-02-23T06:22:57.888Z,62.97
2023-02-23T06:25:26.724Z,53.28
2023-02-23T06:27:55.464Z,61.00
2023-02-23T06:30:24.512Z,58.78
2023-02-23T06:32:53.269Z,56.80
2023-02-23T06:35:25.637Z,57.13
2023-02-23T06:37:55.001Z,55.85
2023-02-23T06:40:23.694Z,55.80
2023-02-23T06:42:52.456Z,56.60
2023-02-23T06:45:21.187Z,60.33
2023-02-23T06:47:50.052Z,59.03
2023-02-23T06:50:19.498Z,58.58
2023-02-23T06:52:49.877Z,57.83
2023-02-23T06:55:18.639Z,61.50
2023-02-23T06:57:51.286Z,55.80
2023-02-23T07:00:21.238Z,58.50
2023-02-23T07:02:50.109Z,56.72
2023-02-23T07:05:19.160Z,58.33
2023-02-23T07:07:49.332Z,53.45
2023-02-23T07:10:18.760Z,51.70
2023-02-23T07:12:47.590Z,54.22
2023-02-23T07:15:18.508Z,53.35
2023-02-23T07:17:48.963Z,50.30
2023-02-23T07:20:18.021Z,48.65
2023-02-23T07:22:46.836Z,52.00
2023-02-23T07:25:17.183Z,49.95
2023-02-23T07:27:45.953Z,58.25
2023-02-23T07:30:15.638Z,44.95
2023-02-23T07:32:44.400Z,52.45
2023-02-23T07:35:13.377Z,49.35
2023-02-23T07:37:42.178Z,44.78
2023-02-23T07:40:12.188Z,50.15
2023-02-23T07:42:42.438Z,52.13
2023-02-23T07:45:12.365Z,50.58
2023-02-23T07:47:41.188Z,50.58
2023-02-23T07:50:14.538Z,48.75
2023-02-23T07:52:44.294Z,52.45
2023-02-23T07:55:13.727Z,51.13
2023-02-23T07:57:43.877Z,53.45
2023-02-23T08:00:13.654Z,56.65
2023-02-23T08:02:42.600Z,58.70
2023-02-23T08:05:11.466Z,52.03
2023-02-23T08:07:40.351Z,56.50
2023-02-23T08:10:10.253Z,55.35
2023-02-23T08:12:39.201Z,58.80
2023-02-23T08:15:11.005Z,58.38
2023-02-23T08:17:40.732Z,58.53
2023-02-23T08:20:10.666Z,62.25
2023-02-23T08:22:48.752Z,63.00
2023-02-23T08:25:19.260Z,60.28
2023-02-23T08:27:48.619Z,61.67
2023-02-23T08:30:20.116Z,68.15
2023-02-23T08:32:49.292Z,61.97
2023-02-23T08:35:20.302Z,65.53
2023-02-23T08:37:49.054Z,60.67
2023-02-23T08:40:18.396Z,65.40
2023-02-23T08:42:48.594Z,59.78
2023-02-23T08:45:19.614Z,63.38
2023-02-23T08:47:48.329Z,65.68
2023-02-23T08:50:17.397Z,66.22
2023-02-23T08:52:46.225Z,62.05
2023-02-23T08:55:18.078Z,60.45
2023-02-23T08:57:46.925Z,53.58
2023-02-23T09:00:16.964Z,59.15
2023-02-23T09:02:48.310Z,66.13
2023-02-23T09:05:20.415Z,63.15
2023-02-23T09:07:49.360Z,65.63
2023-02-23T09:10:20.876Z,66.03
2023-02-23T09:12:49.818Z,60.03
2023-02-23T09:15:18.658Z,65.68
2023-02-23T09:17:49.209Z,69.68
2023-02-23T09:20:18.664Z,71.15
2023-02-23T09:22:49.655Z,68.00
2023-02-23T09:25:22.896Z,69.55
2023-02-23T09:27:52.648Z,67.28
2023-02-23T09:30:22.699Z,65.20
2023-02-23T09:32:53.319Z,68.25
2023-02-23T09:35:24.864Z,65.85
2023-02-23T09:37:55.747Z,59.35
2023-02-23T09:40:27.642Z,61.75
2023-02-23T09:43:04.095Z,60.88
2023-02-23T09:45:41.985Z,56.65
2023-02-23T09:48:16.749Z,63.78
2023-02-23T09:50:49.989Z,63.38
2023-02-23T09:53:34.024Z,61.40
2023-02-23T09:56:08.172Z,62.67
2023-02-23T09:58:36.968Z,67.03
2023-02-23T10:01:41.064Z,62.90
2023-02-23T10:04:16.963Z,65.10
2023-02-23T10:06:51.394Z,63.47
2023-02-23T10:09:28.797Z,63.05
2023-02-23T10:12:08.733Z,67.32
2023-02-23T10:14:57.975Z,66.88
2023-02-23T10:17:37.550Z,60.42
2023-02-23T10:20:20.054Z,60.28
2023-02-23T10:22:51.037Z,53.10
2023-02-23T10:25:24.116Z,61.53
2023-02-23T10:27:55.813Z,55.28
2023-02-23T10:30:26.699Z,62.42
2023-02-23T10:33:02.524Z,61.67
2023-02-23T10:35:33.772Z,60.45
2023-02-23T10:38:03.764Z,61.63
2023-02-23T10:40:35.745Z,62.45
2023-02-23T10:43:05.186Z,58.35
2023-02-23T10:45:39.330Z,59.25
2023-02-23T10:48:10.275Z,60.95
2023-02-23T10:50:42.088Z,52.67
2023-02-23T10:53:17.686Z,51.33
2023-02-23T10:55:48.456Z,50.97
2023-02-23T10:58:19.633Z,53.15
2023-02-23T11:00:54.537Z,51.35
2023-02-23T11:03:34.861Z,48.38
2023-02-23T11:06:08.513Z,44.40
2023-02-23T11:08:39.508Z,53.63
2023-02-23T11:11:21.857Z,53.53
2023-02-23T11:13:51.739Z,51.25
2023-02-23T11:16:24.665Z,47.53
2023-02-23T11:18:56.622Z,42.00
2023-02-23T11:21:29.588Z,44.90
2023-02-23T11:24:02.552Z,47.15
2023-02-23T11:26:39.582Z,49.30
2023-02-23T11:29:17.723Z,46.80
2023-02-23T11:31:53.358Z,45.97
2023-02-23T11:34:28.987Z,41.35
2023-02-23T11:37:05.068Z,49.28
2023-02-23T11:39:34.272Z,46.58
2023-02-23T11:42:16.027Z,52.22
2023-02-23T11:44:45.167Z,50.80
2023-02-23T11:47:19.092Z,49.53
2023-02-23T11:49:49.960Z,46.67
2023-02-23T11:52:23.398Z,44.42
2023-02-23T11:54:59.025Z,40.53
2023-02-23T11:57:31.173Z,38.55
2023-02-23T12:00:02.538Z,38.83
2023-02-23T12:02:51.245Z,36.00
2023-02-23T12:05:23.240Z,41.97
2023-02-23T12:08:00.919Z,44.80
2023-02-23T12:10:33.942Z,44.65
2023-02-23T12:13:10.795Z,48.92
2023-02-23T12:15:49.019Z,47.17
2023-02-23T12:18:28.401Z,49.90
2023-02-23T12:21:01.782Z,55.60
2023-02-23T12:23:34.974Z,61.70
2023-02-23T12:26:10.504Z,56.63
2023-02-23T12:28:47.081Z,66.88
2023-02-23T12:31:25.307Z,62.15
2023-02-23T12:33:58.844Z,62.53
2023-02-23T12:36:35.204Z,64.07
2023-02-23T12:39:17.908Z,60.05
2023-02-23T12:41:52.481Z,55.83
2023-02-23T12:44:35.492Z,55.15
2023-02-23T12:47:10.387Z,55.05
2023-02-23T12:49:44.433Z,52.42
2023-02-23T12:52:18.011Z,50.88
2023-02-23T12:54:48.789Z,55.08
2023-02-23T12:57:28.013Z,50.95
2023-02-23T13:00:34.473Z,52.40
2023-02-23T13:03:26.870Z,57.10
2023-02-23T13:06:04.975Z,51.30
2023-02-23T13:08:59.477Z,51.60
2023-02-23T13:11:48.189Z,50.22
2023-02-23T13:14:25.899Z,54.05
2023-02-23T13:17:01.837Z,54.05
2023-02-23T13:19:36.764Z,51.05
2023-02-23T13:22:21.434Z,53.67
2023-02-23T13:24:53.459Z,52.33
2023-02-23T13:27:28.818Z,116.32
2023-02-23T13:29:59.373Z,55.47
2023-02-23T13:32:32.541Z,50.80
2023-02-23T13:35:02.709Z,51.75
2023-02-23T13:37:41.289Z,50.70
2023-02-23T13:40:24.034Z,54.90
2023-02-23T13:43:03.449Z,57.53
2023-02-23T13:45:50.727Z,53.70
2023-02-23T13:48:55.550Z,58.10
2023-02-23T13:51:33.962Z,53.72
2023-02-23T13:54:07.765Z,51.67
2023-02-23T13:56:43.933Z,50.63
2023-02-23T13:59:21.077Z,43.88
2023-02-23T14:01:53.245Z,43.42
2023-02-23T14:04:28.583Z,47.13
2023-02-23T14:07:05.020Z,41.58
2023-02-23T14:09:37.013Z,39.33
2023-02-23T14:12:19.157Z,37.08
2023-02-23T14:14:49.552Z,33.88
2023-02-23T14:17:41.757Z,36.25
2023-02-23T14:20:29.620Z,33.60
2023-02-23T14:23:35.348Z,32.25
2023-02-23T14:26:18.864Z,36.15
2023-02-23T14:28:50.438Z,33.63
2023-02-23T14:31:25.888Z,33.90
2023-02-23T14:34:02.071Z,32.95
2023-02-23T14:36:37.048Z,26.67
2023-02-23T14:39:10.292Z,30.15
2023-02-23T14:41:46.553Z,29.40
2023-02-23T14:44:28.906Z,26.83
2023-02-23T14:47:03.981Z,31.92
2023-02-23T14:49:39.080Z,28.98
2023-02-23T14:52:09.934Z,30.55
2023-02-23T14:54:40.524Z,32.13
2023-02-23T14:57:18.873Z,29.90
2023-02-23T14:59:54.131Z,30.73
2023-02-23T15:02:26.456Z,29.90
2023-02-23T15:04:56.213Z,26.35
2023-02-23T15:07:32.186Z,24.67
2023-02-23T15:10:02.453Z,25.52
2023-02-23T15:12:39.103Z,30.48
2023-02-23T15:15:17.045Z,26.98
2023-02-23T15:17:49.579Z,26.33
2023-02-23T15:20:23.458Z,25.88
2023-02-23T15:22:55.245Z,22.38
2023-02-23T15:25:26.280Z,24.58
2023-02-23T15:27:56.026Z,29.63
2023-02-23T15:30:27.887Z,22.98
2023-02-23T15:33:06.711Z,26.88
2023-02-23T15:35:45.236Z,25.27
2023-02-23T15:38:41.866Z,24.60
2023-02-23T15:41:16.507Z,21.75
2023-02-23T15:43:45.294Z,22.20
2023-02-23T15:46:25.448Z,23.15
2023-02-23T15:49:00.772Z,36.53
2023-02-23T15:51:35.593Z,33.55
2023-02-23T15:54:13.763Z,19.33
2023-02-23T15:56:46.927Z,17.85
2023-02-23T15:59:23.792Z,18.27
2023-02-23T16:01:55.597Z,17.33
2023-02-23T16:04:32.664Z,19.63
2023-02-23T16:07:15.807Z,24.52
2023-02-23T16:09:54.441Z,19.65
2023-02-23T16:12:29.215Z,18.27
2023-02-23T16:15:00.555Z,18.27
2023-02-23T16:17:33.762Z,18.88
2023-02-23T16:20:19.965Z,22.10
2023-02-23T16:22:53.587Z,19.60
2023-02-23T16:25:25.520Z,20.60
2023-02-23T16:28:00.887Z,19.98
2023-02-23T16:30:41.065Z,19.30
2023-02-23T16:33:18.918Z,21.83
2023-02-23T16:35:51.202Z,21.42
2023-02-23T16:38:27.300Z,18.13
2023-02-23T16:40:56.101Z,20.95
2023-02-23T16:43:24.814Z,20.95
2023-02-23T16:45:53.625Z,18.20
2023-02-23T16:48:24.229Z,20.60
2023-02-23T16:50:54.692Z,17.90
2023-02-23T16:53:23.946Z,18.90
2023-02-23T16:55:54.355Z,18.65
2023-02-23T16:58:26.214Z,17.60
2023-02-23T17:00:55.445Z,18.92
2023-02-23T17:03:27.963Z,17.42
2023-02-23T17:08:27.122Z,17.95
2023-02-23T17:10:57.349Z,15.18
2023-02-23T17:13:29.065Z,17.75
2023-02-23T17:15:59.053Z,13.90
2023-02-23T17:18:29.315Z,16.20
2023-02-23T17:21:01.703Z,17.65
2023-02-23T17:23:39.258Z,16.42
2023-02-23T17:26:09.586Z,16.73
2023-02-23T17:28:39.170Z,19.17
2023-02-23T17:31:08.932Z,19.52
2023-02-23T17:33:38.541Z,16.02
2023-02-23T17:36:10.953Z,15.65
2023-02-23T17:41:10.665Z,16.67
2023-02-23T17:43:39.454Z,14.32
2023-02-23T17:46:08.397Z,15.18
2023-02-23T17:48:37.363Z,19.75
2023-02-23T17:51:10.239Z,15.45
2023-02-23T17:53:39.856Z,15.25
2023-02-23T17:56:09.599Z,14.65
2023-02-23T17:58:39.441Z,15.00
2023-02-23T18:01:09.169Z,18.67
2023-02-23T18:03:38.707Z,14.68
2023-02-23T18:06:10.982Z,13.15
2023-02-23T18:08:41.967Z,14.88
2023-02-23T18:11:11.363Z,15.77
2023-02-23T18:13:40.284Z,14.10
2023-02-23T18:16:10.933Z,16.50
2023-02-23T18:18:42.291Z,14.15
2023-02-23T18:21:14.857Z,15.18
2023-02-23T18:26:14.906Z,14.05
2023-02-23T18:28:44.636Z,13.65
2023-02-23T18:31:15.548Z,12.73
2023-02-23T18:33:44.912Z,14.02
2023-02-23T18:36:18.745Z,14.30
2023-02-23T18:38:47.592Z,13.20
2023-02-23T18:41:16.772Z,14.95
2023-02-23T18:43:45.822Z,12.90
2023-02-23T18:46:15.565Z,12.88
2023-02-23T18:48:44.820Z,16.10
2023-02-23T18:51:14.713Z,15.18
2023-02-23T18:53:45.096Z,14.27
2023-02-23T18:56:15.868Z,14.00
2023-02-23T18:58:46.346Z,13.57
2023-02-23T19:01:18.352Z,15.57
2023-02-23T19:03:47.857Z,19.10
2023-02-23T19:06:17.645Z,19.45
2023-02-23T19:08:54.089Z,22.85
2023-02-23T19:11:28.173Z,24.48
2023-02-23T19:13:58.528Z,23.90
2023-02-23T19:16:30.120Z,25.98
2023-02-23T19:18:59.089Z,24.52
2023-02-23T19:21:28.057Z,19.08
2023-02-23T19:23:59.430Z,25.85
2023-02-23T19:26:29.449Z,20.95
2023-02-23T19:28:58.817Z,21.08
2023-02-23T19:31:28.616Z,22.52
2023-02-23T19:33:58.398Z,17.77
2023-02-23T19:36:31.697Z,23.73
2023-02-23T19:39:10.455Z,18.48
2023-02-23T19:41:40.594Z,19.83
2023-02-23T19:44:09.872Z,15.85
2023-02-23T19:46:39.961Z,17.35
2023-02-23T19:49:08.894Z,16.08
2023-02-23T19:51:37.957Z,16.95
2023-02-23T19:54:08.298Z,17.70
2023-02-23T19:56:38.137Z,15.65
2023-02-23T19:59:07.431Z,19.92
2023-02-23T20:01:37.322Z,21.42
2023-02-23T20:04:08.270Z,23.55
2023-02-23T20:06:44.698Z,24.27
2023-02-23T20:09:15.817Z,24.40
2023-02-23T20:11:44.613Z,26.83
2023-02-23T20:14:13.422Z,22.80
2023-02-23T20:16:42.353Z,28.25
2023-02-23T20:19:11.663Z,27.27
2023-02-23T20:21:42.067Z,28.95
2023-02-23T20:24:12.687Z,24.67
2023-02-23T20:26:43.301Z,25.52
2023-02-23T20:29:18.009Z,22.88
2023-02-23T20:31:50.776Z,25.92
2023-02-23T20:34:23.686Z,29.58
2023-02-23T20:36:53.892Z,26.73
2023-02-23T20:39:23.171Z,30.23
2023-02-23T20:41:53.750Z,31.35
2023-02-23T20:44:24.920Z,32.00
2023-02-23T20:46:53.639Z,42.83
2023-02-23T20:49:22.717Z,30.80
2023-02-23T20:51:51.787Z,36.33
2023-02-23T20:54:20.829Z,29.95
2023-02-23T20:56:58.868Z,24.27
2023-02-23T20:59:30.867Z,13.88
2023-02-23T21:02:01.558Z,18.35
2023-02-23T21:04:30.472Z,19.67
2023-02-23T21:07:00.271Z,11.98
2023-02-23T21:09:29.037Z,10.80
2023-02-23T21:11:58.962Z,12.27
2023-02-23T21:14:29.253Z,13.25
2023-02-23T21:16:58.093Z,13.07
2023-02-23T21:19:26.819Z,13.23
2023-02-23T21:21:58.026Z,10.43
2023-02-23T21:24:27.652Z,11.55
2023-02-23T21:26:56.497Z,11.95
2023-02-23T21:29:25.276Z,18.42
2023-02-23T21:31:55.825Z,15.73
2023-02-23T21:34:24.842Z,15.57
2023-02-23T21:36:54.215Z,16.08
2023-02-23T21:39:28.209Z,19.13
2023-02-23T21:41:57.384Z,15.90
2023-02-23T21:44:26.782Z,19.63
2023-02-23T21:46:57.087Z,15.13
2023-02-23T21:49:25.955Z,18.00
2023-02-23T21:51:55.223Z,20.02
2023-02-23T21:54:24.071Z,15.63
2023-02-23T21:56:52.849Z,17.90
2023-02-23T21:59:22.204Z,21.10
2023-02-23T22:01:51.128Z,19.80
2023-02-23T22:04:21.486Z,16.67
2023-02-23T22:06:50.226Z,22.38
2023-02-23T22:09:19.254Z,15.77
2023-02-23T22:11:48.973Z,19.60
2023-02-23T22:14:18.106Z,17.67
2023-02-23T22:16:47.721Z,34.45
2023-02-23T22:19:17.508Z,14.23
2023-02-23T22:21:48.956Z,19.67
2023-02-23T22:24:19.148Z,19.83
2023-02-23T22:26:55.036Z,14.90
2023-02-23T22:29:25.455Z,11.07
2023-02-23T22:31:54.405Z,16.55
2023-02-23T22:34:23.682Z,15.48
2023-02-23T22:36:53.877Z,9.48
2023-02-23T22:39:22.897Z,9.05
2023-02-23T22:41:52.039Z,9.38
2023-02-23T22:44:22.782Z,10.10
2023-02-23T22:46:53.347Z,14.88
2023-02-23T22:49:22.398Z,17.67
2023-02-23T22:51:51.693Z,13.93
2023-02-23T22:54:24.919Z,13.50
2023-02-23T22:56:54.942Z,21.30
2023-02-23T22:59:23.719Z,14.75
2023-02-23T23:01:56.496Z,8.48
2023-02-23T23:04:27.621Z,11.82
2023-02-23T23:06:56.467Z,12.95
2023-02-23T23:09:28.198Z,9.82
2023-02-23T23:11:57.755Z,10.07
2023-02-23T23:14:27.505Z,9.10
2023-02-23T23:16:56.550Z,13.75
2023-02-23T23:19:26.179Z,10.73
2023-02-23T23:21:56.167Z,13.30
2023-02-23T23:24:27.586Z,12.38
2023-02-23T23:27:00.251Z,18.48
2023-02-23T23:31:58.809Z,13.50
2023-02-23T23:34:27.640Z,19.00
2023-02-23T23:36:56.850Z,17.15
2023-02-23T23:39:27.195Z,15.23
2023-02-23T23:41:56.288Z,14.15
2023-02-23T23:44:29.088Z,11.02
2023-02-23T23:46:59.694Z,9.82
2023-02-23T23:49:28.764Z,13.68
2023-02-23T23:51:57.948Z,15.38
2023-02-23T23:54:30.763Z,17.77
2023-02-23T23:57:01.303Z,11.95
2023-02-23T23:59:31.990Z,13.27
